Terminal Aerodrome Forecast
Issued by NWS

Home | Current Version | Previous Version | Text Only | Print | Product List | Glossary Off
Versions: 1 2 3 4 5 6 7 8 9 10 11 12 13 14 15 16 17 18

000
FTUS43 KMPX 050520
TAFAXN
TAF
KAXN 050520Z 0506/0606 26005KT P6SM SKC
     FM051500 21009KT P6SM SKC
     FM060000 18014KT P6SM BKN150=

USA.gov is the U.S. government's official web portal to all federal, state and local government web resources and services.